sensor_id;sensor_type;location;lat;lon;timestamp;temperature;humidity
75927;DHT22;64605;48.296;16.416;2022-12-18T00:01:20;0.80;72.50
75927;DHT22;64605;48.296;16.416;2022-12-18T00:03:46;0.80;73.90
75927;DHT22;64605;48.296;16.416;2022-12-18T00:06:12;0.70;72.70
75927;DHT22;64605;48.296;16.416;2022-12-18T00:08:39;0.70;73.10
75927;DHT22;64605;48.296;16.416;2022-12-18T00:11:13;0.60;73.20
75927;DHT22;64605;48.296;16.416;2022-12-18T00:13:39;0.60;73.40
75927;DHT22;64605;48.296;16.416;2022-12-18T00:16:07;0.60;73.20
75927;DHT22;64605;48.296;16.416;2022-12-18T00:18:33;0.60;72.70
75927;DHT22;64605;48.296;16.416;2022-12-18T00:21:04;0.60;72.20
75927;DHT22;64605;48.296;16.416;2022-12-18T00:23:31;0.50;72.20
75927;DHT22;64605;48.296;16.416;2022-12-18T00:26:02;0.50;72.30
75927;DHT22;64605;48.296;16.416;2022-12-18T00:28:28;0.50;72.80
75927;DHT22;64605;48.296;16.416;2022-12-18T00:31:07;0.50;73.10
75927;DHT22;64605;48.296;16.416;2022-12-18T00:33:34;0.40;73.00
75927;DHT22;64605;48.296;16.416;2022-12-18T00:36:18;0.40;73.60
75927;DHT22;64605;48.296;16.416;2022-12-18T00:38:44;0.30;73.90
75927;DHT22;64605;48.296;16.416;2022-12-18T00:41:11;0.20;74.10
75927;DHT22;64605;48.296;16.416;2022-12-18T00:43:38;0.30;74.60
75927;DHT22;64605;48.296;16.416;2022-12-18T00:46:04;0.20;74.50
75927;DHT22;64605;48.296;16.416;2022-12-18T00:48:30;0.20;74.80
75927;DHT22;64605;48.296;16.416;2022-12-18T00:50:56;0.20;74.30
75927;DHT22;64605;48.296;16.416;2022-12-18T00:53:21;0.10;74.40
75927;DHT22;64605;48.296;16.416;2022-12-18T00:55:47;0.10;75.20
75927;DHT22;64605;48.296;16.416;2022-12-18T00:58:15;0.10;74.40
75927;DHT22;64605;48.296;16.416;2022-12-18T01:00:41;0.00;74.70
75927;DHT22;64605;48.296;16.416;2022-12-18T01:03:07;0.00;75.10
75927;DHT22;64605;48.296;16.416;2022-12-18T01:05:33;0.00;75.20
75927;DHT22;64605;48.296;16.416;2022-12-18T01:07:59;0.00;75.10
75927;DHT22;64605;48.296;16.416;2022-12-18T01:10:25;-0.10;74.70
75927;DHT22;64605;48.296;16.416;2022-12-18T01:12:51;-0.10;75.10
75927;DHT22;64605;48.296;16.416;2022-12-18T01:15:18;-0.10;75.10
75927;DHT22;64605;48.296;16.416;2022-12-18T01:17:44;-0.10;75.50
75927;DHT22;64605;48.296;16.416;2022-12-18T01:20:12;-0.20;75.30
75927;DHT22;64605;48.296;16.416;2022-12-18T01:22:38;-0.20;75.70
75927;DHT22;64605;48.296;16.416;2022-12-18T01:25:04;-0.20;75.00
75927;DHT22;64605;48.296;16.416;2022-12-18T01:27:32;-0.30;74.50
75927;DHT22;64605;48.296;16.416;2022-12-18T01:29:58;-0.30;74.50
75927;DHT22;64605;48.296;16.416;2022-12-18T01:32:23;-0.40;74.80
75927;DHT22;64605;48.296;16.416;2022-12-18T01:34:49;-0.50;75.60
75927;DHT22;64605;48.296;16.416;2022-12-18T01:37:15;-0.40;75.70
75927;DHT22;64605;48.296;16.416;2022-12-18T01:39:40;-0.40;75.90
75927;DHT22;64605;48.296;16.416;2022-12-18T01:42:12;-0.40;75.90
75927;DHT22;64605;48.296;16.416;2022-12-18T01:44:55;-0.40;76.20
75927;DHT22;64605;48.296;16.416;2022-12-18T01:47:32;-0.40;76.30
75927;DHT22;64605;48.296;16.416;2022-12-18T01:50:02;-0.50;76.10
75927;DHT22;64605;48.296;16.416;2022-12-18T01:52:30;-0.50;76.10
75927;DHT22;64605;48.296;16.416;2022-12-18T01:54:57;-0.60;76.40
75927;DHT22;64605;48.296;16.416;2022-12-18T01:57:23;-0.60;76.30
75927;DHT22;64605;48.296;16.416;2022-12-18T01:59:52;-0.50;76.60
75927;DHT22;64605;48.296;16.416;2022-12-18T02:02:20;-0.60;76.10
75927;DHT22;64605;48.296;16.416;2022-12-18T02:04:46;-0.70;75.20
75927;DHT22;64605;48.296;16.416;2022-12-18T02:16:00;-0.80;76.30
75927;DHT22;64605;48.296;16.416;2022-12-18T02:18:31;-0.90;76.50
75927;DHT22;64605;48.296;16.416;2022-12-18T02:23:56;-0.90;76.60
75927;DHT22;64605;48.296;16.416;2022-12-18T02:26:40;-0.90;76.80
75927;DHT22;64605;48.296;16.416;2022-12-18T02:29:13;-0.90;76.90
75927;DHT22;64605;48.296;16.416;2022-12-18T02:31:43;-0.90;76.90
75927;DHT22;64605;48.296;16.416;2022-12-18T02:34:11;-0.90;76.90
75927;DHT22;64605;48.296;16.416;2022-12-18T02:36:40;-0.90;77.10
75927;DHT22;64605;48.296;16.416;2022-12-18T02:39:10;-0.90;78.00
75927;DHT22;64605;48.296;16.416;2022-12-18T02:41:36;-1.00;78.10
75927;DHT22;64605;48.296;16.416;2022-12-18T02:44:10;-0.90;77.10
75927;DHT22;64605;48.296;16.416;2022-12-18T02:46:39;-1.00;76.70
75927;DHT22;64605;48.296;16.416;2022-12-18T02:52:06;-1.10;76.50
75927;DHT22;64605;48.296;16.416;2022-12-18T02:57:37;-1.10;77.10
75927;DHT22;64605;48.296;16.416;2022-12-18T03:00:16;-1.10;77.00
75927;DHT22;64605;48.296;16.416;2022-12-18T03:05:55;-1.10;77.40
75927;DHT22;64605;48.296;16.416;2022-12-18T03:08:25;-1.10;77.60
75927;DHT22;64605;48.296;16.416;2022-12-18T03:11:08;-1.10;77.50
75927;DHT22;64605;48.296;16.416;2022-12-18T03:13:47;-1.10;77.60
75927;DHT22;64605;48.296;16.416;2022-12-18T03:16:20;-1.10;77.60
75927;DHT22;64605;48.296;16.416;2022-12-18T03:18:59;-1.10;77.60
75927;DHT22;64605;48.296;16.416;2022-12-18T03:21:47;-1.20;77.70
75927;DHT22;64605;48.296;16.416;2022-12-18T03:24:15;-1.20;77.70
75927;DHT22;64605;48.296;16.416;2022-12-18T03:26:45;-1.20;77.70
75927;DHT22;64605;48.296;16.416;2022-12-18T03:29:21;-1.20;77.60
75927;DHT22;64605;48.296;16.416;2022-12-18T03:31:53;-1.20;77.90
75927;DHT22;64605;48.296;16.416;2022-12-18T03:34:24;-1.30;77.70
75927;DHT22;64605;48.296;16.416;2022-12-18T03:36:54;-1.20;77.90
75927;DHT22;64605;48.296;16.416;2022-12-18T03:39:19;-1.30;78.10
75927;DHT22;64605;48.296;16.416;2022-12-18T03:42:01;-1.30;77.00
75927;DHT22;64605;48.296;16.416;2022-12-18T03:44:39;-1.40;77.10
75927;DHT22;64605;48.296;16.416;2022-12-18T03:52:36;-1.60;77.70
75927;DHT22;64605;48.296;16.416;2022-12-18T03:55:05;-1.50;78.20
75927;DHT22;64605;48.296;16.416;2022-12-18T03:57:32;-1.60;77.80
75927;DHT22;64605;48.296;16.416;2022-12-18T04:00:11;-1.50;78.10
75927;DHT22;64605;48.296;16.416;2022-12-18T04:02:42;-1.50;78.20
75927;DHT22;64605;48.296;16.416;2022-12-18T04:05:10;-1.50;78.00
75927;DHT22;64605;48.296;16.416;2022-12-18T04:07:36;-1.50;77.50
75927;DHT22;64605;48.296;16.416;2022-12-18T04:10:06;-1.60;76.70
75927;DHT22;64605;48.296;16.416;2022-12-18T04:12:32;-1.70;77.40
75927;DHT22;64605;48.296;16.416;2022-12-18T04:14:57;-1.80;77.80
75927;DHT22;64605;48.296;16.416;2022-12-18T04:17:23;-1.80;78.30
75927;DHT22;64605;48.296;16.416;2022-12-18T04:19:49;-1.80;78.60
75927;DHT22;64605;48.296;16.416;2022-12-18T04:22:15;-1.70;78.00
75927;DHT22;64605;48.296;16.416;2022-12-18T04:24:41;-1.80;77.70
75927;DHT22;64605;48.296;16.416;2022-12-18T04:27:07;-1.90;77.80
75927;DHT22;64605;48.296;16.416;2022-12-18T04:29:32;-1.90;77.80
75927;DHT22;64605;48.296;16.416;2022-12-18T04:31:58;-1.90;77.60
75927;DHT22;64605;48.296;16.416;2022-12-18T04:34:24;-2.00;78.10
75927;DHT22;64605;48.296;16.416;2022-12-18T04:36:49;-1.90;78.60
75927;DHT22;64605;48.296;16.416;2022-12-18T04:39:15;-1.90;78.40
75927;DHT22;64605;48.296;16.416;2022-12-18T04:41:41;-1.90;78.70
75927;DHT22;64605;48.296;16.416;2022-12-18T04:44:06;-1.90;78.00
75927;DHT22;64605;48.296;16.416;2022-12-18T04:46:32;-1.90;77.80
75927;DHT22;64605;48.296;16.416;2022-12-18T04:48:58;-1.90;79.00
75927;DHT22;64605;48.296;16.416;2022-12-18T04:51:23;-1.90;77.80
75927;DHT22;64605;48.296;16.416;2022-12-18T04:53:49;-2.00;77.60
75927;DHT22;64605;48.296;16.416;2022-12-18T04:56:16;-2.10;78.00
75927;DHT22;64605;48.296;16.416;2022-12-18T04:58:43;-2.10;79.00
75927;DHT22;64605;48.296;16.416;2022-12-18T05:01:11;-2.20;79.00
75927;DHT22;64605;48.296;16.416;2022-12-18T05:03:37;-2.20;79.20
75927;DHT22;64605;48.296;16.416;2022-12-18T05:06:04;-2.20;79.10
75927;DHT22;64605;48.296;16.416;2022-12-18T05:08:30;-2.10;79.30
75927;DHT22;64605;48.296;16.416;2022-12-18T05:11:04;-2.20;79.20
75927;DHT22;64605;48.296;16.416;2022-12-18T05:13:30;-2.20;78.90
75927;DHT22;64605;48.296;16.416;2022-12-18T05:15:55;-2.20;78.40
75927;DHT22;64605;48.296;16.416;2022-12-18T05:18:24;-2.20;79.20
75927;DHT22;64605;48.296;16.416;2022-12-18T05:20:51;-2.20;79.20
75927;DHT22;64605;48.296;16.416;2022-12-18T05:23:17;-2.20;79.20
75927;DHT22;64605;48.296;16.416;2022-12-18T05:25:46;-2.20;77.80
75927;DHT22;64605;48.296;16.416;2022-12-18T05:28:15;-2.30;77.20
75927;DHT22;64605;48.296;16.416;2022-12-18T05:30:42;-2.40;77.70
75927;DHT22;64605;48.296;16.416;2022-12-18T05:33:07;-2.40;79.10
75927;DHT22;64605;48.296;16.416;2022-12-18T05:35:33;-2.40;78.90
75927;DHT22;64605;48.296;16.416;2022-12-18T05:37:59;-2.40;79.50
75927;DHT22;64605;48.296;16.416;2022-12-18T05:40:24;-2.30;79.50
75927;DHT22;64605;48.296;16.416;2022-12-18T05:42:50;-2.40;78.60
75927;DHT22;64605;48.296;16.416;2022-12-18T05:45:16;-2.40;79.10
75927;DHT22;64605;48.296;16.416;2022-12-18T05:47:41;-2.40;79.40
75927;DHT22;64605;48.296;16.416;2022-12-18T05:50:07;-2.40;79.20
75927;DHT22;64605;48.296;16.416;2022-12-18T05:52:33;-2.40;79.20
75927;DHT22;64605;48.296;16.416;2022-12-18T05:54:58;-2.40;78.70
75927;DHT22;64605;48.296;16.416;2022-12-18T05:57:24;-2.40;78.30
75927;DHT22;64605;48.296;16.416;2022-12-18T05:59:50;-2.50;77.80
75927;DHT22;64605;48.296;16.416;2022-12-18T06:02:15;-2.60;77.40
75927;DHT22;64605;48.296;16.416;2022-12-18T06:04:41;-2.60;77.70
75927;DHT22;64605;48.296;16.416;2022-12-18T06:07:07;-2.70;78.00
75927;DHT22;64605;48.296;16.416;2022-12-18T06:09:33;-2.70;78.80
75927;DHT22;64605;48.296;16.416;2022-12-18T06:11:58;-2.70;79.00
75927;DHT22;64605;48.296;16.416;2022-12-18T06:14:24;-2.70;78.80
75927;DHT22;64605;48.296;16.416;2022-12-18T06:16:52;-2.70;79.20
75927;DHT22;64605;48.296;16.416;2022-12-18T06:19:18;-2.70;79.00
75927;DHT22;64605;48.296;16.416;2022-12-18T06:21:44;-2.60;79.40
75927;DHT22;64605;48.296;16.416;2022-12-18T06:24:09;-2.60;79.10
75927;DHT22;64605;48.296;16.416;2022-12-18T06:26:37;-2.60;77.70
75927;DHT22;64605;48.296;16.416;2022-12-18T06:29:04;-2.70;78.20
75927;DHT22;64605;48.296;16.416;2022-12-18T06:31:30;-2.70;78.10
75927;DHT22;64605;48.296;16.416;2022-12-18T06:33:55;-2.80;77.90
75927;DHT22;64605;48.296;16.416;2022-12-18T06:36:21;-2.80;77.90
75927;DHT22;64605;48.296;16.416;2022-12-18T06:38:47;-2.90;78.30
75927;DHT22;64605;48.296;16.416;2022-12-18T06:41:15;-2.90;78.30
75927;DHT22;64605;48.296;16.416;2022-12-18T06:43:41;-2.80;78.90
75927;DHT22;64605;48.296;16.416;2022-12-18T06:46:08;-2.70;78.70
75927;DHT22;64605;48.296;16.416;2022-12-18T06:48:34;-2.70;78.30
75927;DHT22;64605;48.296;16.416;2022-12-18T06:50:59;-2.70;78.10
75927;DHT22;64605;48.296;16.416;2022-12-18T06:53:25;-2.80;78.10
75927;DHT22;64605;48.296;16.416;2022-12-18T06:55:51;-2.80;77.90
75927;DHT22;64605;48.296;16.416;2022-12-18T06:58:17;-2.70;78.00
75927;DHT22;64605;48.296;16.416;2022-12-18T07:00:43;-2.70;78.10
75927;DHT22;64605;48.296;16.416;2022-12-18T07:03:08;-2.70;78.60
75927;DHT22;64605;48.296;16.416;2022-12-18T07:05:34;-2.70;78.30
75927;DHT22;64605;48.296;16.416;2022-12-18T07:08:04;-2.60;78.70
75927;DHT22;64605;48.296;16.416;2022-12-18T07:10:30;-2.50;78.00
75927;DHT22;64605;48.296;16.416;2022-12-18T07:12:56;-2.40;78.90
75927;DHT22;64605;48.296;16.416;2022-12-18T07:15:21;-2.40;77.90
75927;DHT22;64605;48.296;16.416;2022-12-18T07:17:47;-2.30;77.50
75927;DHT22;64605;48.296;16.416;2022-12-18T07:20:12;-2.30;77.50
75927;DHT22;64605;48.296;16.416;2022-12-18T07:22:38;-2.30;77.60
75927;DHT22;64605;48.296;16.416;2022-12-18T07:25:04;-2.20;78.10
75927;DHT22;64605;48.296;16.416;2022-12-18T07:27:30;-2.00;77.40
75927;DHT22;64605;48.296;16.416;2022-12-18T07:29:55;-2.00;77.60
75927;DHT22;64605;48.296;16.416;2022-12-18T07:32:21;-1.80;77.40
75927;DHT22;64605;48.296;16.416;2022-12-18T07:34:47;-1.70;77.20
75927;DHT22;64605;48.296;16.416;2022-12-18T07:37:12;-1.60;76.80
75927;DHT22;64605;48.296;16.416;2022-12-18T07:39:38;-1.40;76.40
75927;DHT22;64605;48.296;16.416;2022-12-18T07:42:04;-1.40;76.10
75927;DHT22;64605;48.296;16.416;2022-12-18T07:44:48;-1.20;76.20
75927;DHT22;64605;48.296;16.416;2022-12-18T07:47:13;-1.10;76.20
75927;DHT22;64605;48.296;16.416;2022-12-18T07:49:39;-0.90;75.40
75927;DHT22;64605;48.296;16.416;2022-12-18T07:52:05;-0.70;75.60
75927;DHT22;64605;48.296;16.416;2022-12-18T07:54:30;-0.50;74.80
75927;DHT22;64605;48.296;16.416;2022-12-18T07:56:56;-0.30;73.90
75927;DHT22;64605;48.296;16.416;2022-12-18T07:59:22;0.00;75.10
75927;DHT22;64605;48.296;16.416;2022-12-18T08:01:47;0.40;74.70
75927;DHT22;64605;48.296;16.416;2022-12-18T08:04:13;1.20;75.30
75927;DHT22;64605;48.296;16.416;2022-12-18T08:06:39;1.90;74.30
75927;DHT22;64605;48.296;16.416;2022-12-18T08:09:04;2.40;71.30
75927;DHT22;64605;48.296;16.416;2022-12-18T08:11:30;3.00;70.60
75927;DHT22;64605;48.296;16.416;2022-12-18T08:13:57;3.40;68.60
75927;DHT22;64605;48.296;16.416;2022-12-18T08:16:23;3.90;67.50
75927;DHT22;64605;48.296;16.416;2022-12-18T08:18:49;4.10;65.80
75927;DHT22;64605;48.296;16.416;2022-12-18T08:21:23;4.40;65.10
75927;DHT22;64605;48.296;16.416;2022-12-18T08:23:50;4.50;63.20
75927;DHT22;64605;48.296;16.416;2022-12-18T08:26:17;4.30;61.70
75927;DHT22;64605;48.296;16.416;2022-12-18T08:28:43;4.20;61.90
75927;DHT22;64605;48.296;16.416;2022-12-18T08:31:09;4.30;62.20
75927;DHT22;64605;48.296;16.416;2022-12-18T08:33:36;4.50;62.20
75927;DHT22;64605;48.296;16.416;2022-12-18T08:36:04;4.60;61.40
75927;DHT22;64605;48.296;16.416;2022-12-18T08:38:32;4.90;61.40
75927;DHT22;64605;48.296;16.416;2022-12-18T08:41:03;5.00;60.90
75927;DHT22;64605;48.296;16.416;2022-12-18T08:43:29;5.10;60.60
75927;DHT22;64605;48.296;16.416;2022-12-18T08:46:16;5.10;60.70
75927;DHT22;64605;48.296;16.416;2022-12-18T08:48:42;5.10;59.50
75927;DHT22;64605;48.296;16.416;2022-12-18T08:51:08;5.00;59.90
75927;DHT22;64605;48.296;16.416;2022-12-18T08:53:35;5.10;61.00
75927;DHT22;64605;48.296;16.416;2022-12-18T08:56:01;5.10;59.00
75927;DHT22;64605;48.296;16.416;2022-12-18T08:58:27;5.00;59.90
75927;DHT22;64605;48.296;16.416;2022-12-18T09:00:52;4.90;60.70
75927;DHT22;64605;48.296;16.416;2022-12-18T09:03:19;4.80;60.50
75927;DHT22;64605;48.296;16.416;2022-12-18T09:05:48;4.70;60.40
75927;DHT22;64605;48.296;16.416;2022-12-18T09:08:14;4.60;60.50
75927;DHT22;64605;48.296;16.416;2022-12-18T09:10:44;4.50;57.20
75927;DHT22;64605;48.296;16.416;2022-12-18T09:13:11;4.30;59.30
75927;DHT22;64605;48.296;16.416;2022-12-18T09:15:55;4.30;59.00
75927;DHT22;64605;48.296;16.416;2022-12-18T09:18:22;4.20;58.70
75927;DHT22;64605;48.296;16.416;2022-12-18T09:20:49;4.20;59.80
75927;DHT22;64605;48.296;16.416;2022-12-18T09:23:17;4.20;60.10
75927;DHT22;64605;48.296;16.416;2022-12-18T09:25:42;4.20;60.40
75927;DHT22;64605;48.296;16.416;2022-12-18T09:28:13;4.20;59.50
75927;DHT22;64605;48.296;16.416;2022-12-18T09:30:43;4.10;59.40
75927;DHT22;64605;48.296;16.416;2022-12-18T09:33:09;4.10;60.50
75927;DHT22;64605;48.296;16.416;2022-12-18T09:35:40;4.10;59.80
75927;DHT22;64605;48.296;16.416;2022-12-18T09:38:07;4.20;61.40
75927;DHT22;64605;48.296;16.416;2022-12-18T09:40:39;4.20;61.50
75927;DHT22;64605;48.296;16.416;2022-12-18T09:43:07;4.20;60.70
75927;DHT22;64605;48.296;16.416;2022-12-18T09:45:43;4.30;60.90
75927;DHT22;64605;48.296;16.416;2022-12-18T09:48:27;4.40;61.20
75927;DHT22;64605;48.296;16.416;2022-12-18T09:50:58;4.50;61.40
75927;DHT22;64605;48.296;16.416;2022-12-18T09:53:28;4.50;61.30
75927;DHT22;64605;48.296;16.416;2022-12-18T09:55:56;4.50;60.30
75927;DHT22;64605;48.296;16.416;2022-12-18T09:58:39;4.40;59.40
75927;DHT22;64605;48.296;16.416;2022-12-18T10:01:15;4.40;61.00
75927;DHT22;64605;48.296;16.416;2022-12-18T10:03:41;4.50;61.40
75927;DHT22;64605;48.296;16.416;2022-12-18T10:06:24;4.50;61.10
75927;DHT22;64605;48.296;16.416;2022-12-18T10:14:39;4.40;59.00
75927;DHT22;64605;48.296;16.416;2022-12-18T10:20:22;4.10;59.70
75927;DHT22;64605;48.296;16.416;2022-12-18T10:23:00;4.10;60.70
75927;DHT22;64605;48.296;16.416;2022-12-18T10:25:41;4.20;59.70
75927;DHT22;64605;48.296;16.416;2022-12-18T10:28:16;4.20;60.10
75927;DHT22;64605;48.296;16.416;2022-12-18T10:30:43;4.20;59.70
75927;DHT22;64605;48.296;16.416;2022-12-18T10:33:13;3.90;58.30
75927;DHT22;64605;48.296;16.416;2022-12-18T10:35:42;3.70;59.60
75927;DHT22;64605;48.296;16.416;2022-12-18T10:40:55;3.80;60.20
75927;DHT22;64605;48.296;16.416;2022-12-18T10:43:41;3.80;60.60
75927;DHT22;64605;48.296;16.416;2022-12-18T10:51:24;3.70;61.30
75927;DHT22;64605;48.296;16.416;2022-12-18T10:54:14;3.80;60.90
75927;DHT22;64605;48.296;16.416;2022-12-18T10:56:41;3.60;59.40
75927;DHT22;64605;48.296;16.416;2022-12-18T10:59:09;3.60;59.90
75927;DHT22;64605;48.296;16.416;2022-12-18T11:04:17;3.30;59.70
75927;DHT22;64605;48.296;16.416;2022-12-18T11:07:04;3.30;61.50
75927;DHT22;64605;48.296;16.416;2022-12-18T11:09:38;3.30;61.10
75927;DHT22;64605;48.296;16.416;2022-12-18T11:12:17;3.10;60.70
75927;DHT22;64605;48.296;16.416;2022-12-18T11:14:49;3.10;61.70
75927;DHT22;64605;48.296;16.416;2022-12-18T11:17:21;3.10;61.70
75927;DHT22;64605;48.296;16.416;2022-12-18T11:20:19;3.10;61.90
75927;DHT22;64605;48.296;16.416;2022-12-18T11:22:58;3.00;61.20
75927;DHT22;64605;48.296;16.416;2022-12-18T11:25:25;3.00;62.10
75927;DHT22;64605;48.296;16.416;2022-12-18T11:28:04;2.90;61.70
75927;DHT22;64605;48.296;16.416;2022-12-18T11:30:37;2.90;62.20
75927;DHT22;64605;48.296;16.416;2022-12-18T11:33:11;2.80;62.50
75927;DHT22;64605;48.296;16.416;2022-12-18T11:38:25;3.00;63.10
75927;DHT22;64605;48.296;16.416;2022-12-18T11:44:29;2.90;63.20
75927;DHT22;64605;48.296;16.416;2022-12-18T11:47:00;3.00;63.90
75927;DHT22;64605;48.296;16.416;2022-12-18T11:49:35;3.20;63.40
75927;DHT22;64605;48.296;16.416;2022-12-18T11:52:18;3.20;62.30
75927;DHT22;64605;48.296;16.416;2022-12-18T11:54:44;3.20;62.20
75927;DHT22;64605;48.296;16.416;2022-12-18T12:00:00;2.90;61.60
75927;DHT22;64605;48.296;16.416;2022-12-18T12:22:07;2.70;62.10
75927;DHT22;64605;48.296;16.416;2022-12-18T12:33:24;2.30;63.90
75927;DHT22;64605;48.296;16.416;2022-12-18T12:36:07;2.10;62.90
75927;DHT22;64605;48.296;16.416;2022-12-18T12:38:41;2.00;63.80
75927;DHT22;64605;48.296;16.416;2022-12-18T12:41:13;2.00;64.00
75927;DHT22;64605;48.296;16.416;2022-12-18T12:44:01;1.90;64.10
75927;DHT22;64605;48.296;16.416;2022-12-18T12:46:32;2.00;64.60
75927;DHT22;64605;48.296;16.416;2022-12-18T12:49:20;2.10;64.60
75927;DHT22;64605;48.296;16.416;2022-12-18T12:51:53;2.10;64.50
75927;DHT22;64605;48.296;16.416;2022-12-18T12:54:24;2.20;65.10
75927;DHT22;64605;48.296;16.416;2022-12-18T12:57:11;2.40;65.30
75927;DHT22;64605;48.296;16.416;2022-12-18T13:00:18;2.50;64.60
75927;DHT22;64605;48.296;16.416;2022-12-18T13:03:06;2.50;63.80
75927;DHT22;64605;48.296;16.416;2022-12-18T13:05:38;2.50;63.00
75927;DHT22;64605;48.296;16.416;2022-12-18T13:08:08;2.50;63.60
75927;DHT22;64605;48.296;16.416;2022-12-18T13:10:41;2.60;64.40
75927;DHT22;64605;48.296;16.416;2022-12-18T13:13:11;2.60;64.00
75927;DHT22;64605;48.296;16.416;2022-12-18T13:16:07;2.60;63.50
75927;DHT22;64605;48.296;16.416;2022-12-18T13:18:34;2.60;63.90
75927;DHT22;64605;48.296;16.416;2022-12-18T13:26:39;2.80;64.80
75927;DHT22;64605;48.296;16.416;2022-12-18T13:34:16;2.60;64.00
75927;DHT22;64605;48.296;16.416;2022-12-18T13:36:42;2.60;64.70
75927;DHT22;64605;48.296;16.416;2022-12-18T13:44:40;2.60;64.60
75927;DHT22;64605;48.296;16.416;2022-12-18T13:47:32;2.50;64.20
75927;DHT22;64605;48.296;16.416;2022-12-18T13:49:59;2.50;64.90
75927;DHT22;64605;48.296;16.416;2022-12-18T13:52:44;2.50;65.00
75927;DHT22;64605;48.296;16.416;2022-12-18T13:55:17;2.50;65.20
75927;DHT22;64605;48.296;16.416;2022-12-18T13:57:43;2.30;64.60
75927;DHT22;64605;48.296;16.416;2022-12-18T14:00:28;2.30;65.20
75927;DHT22;64605;48.296;16.416;2022-12-18T14:02:55;2.20;65.90
75927;DHT22;64605;48.296;16.416;2022-12-18T14:05:29;2.20;66.30
75927;DHT22;64605;48.296;16.416;2022-12-18T14:08:03;2.20;66.50
75927;DHT22;64605;48.296;16.416;2022-12-18T14:10:48;2.20;66.10
75927;DHT22;64605;48.296;16.416;2022-12-18T14:13:21;2.20;66.30
75927;DHT22;64605;48.296;16.416;2022-12-18T14:15:49;2.10;66.50
75927;DHT22;64605;48.296;16.416;2022-12-18T14:20:58;2.00;66.60
75927;DHT22;64605;48.296;16.416;2022-12-18T14:26:03;1.90;67.20
75927;DHT22;64605;48.296;16.416;2022-12-18T14:28:44;2.00;67.30
75927;DHT22;64605;48.296;16.416;2022-12-18T14:31:21;2.00;66.80
75927;DHT22;64605;48.296;16.416;2022-12-18T14:33:47;1.90;67.10
75927;DHT22;64605;48.296;16.416;2022-12-18T14:36:22;1.90;67.10
75927;DHT22;64605;48.296;16.416;2022-12-18T14:38:51;1.80;67.50
75927;DHT22;64605;48.296;16.416;2022-12-18T14:41:20;1.80;67.40
75927;DHT22;64605;48.296;16.416;2022-12-18T14:43:53;1.80;67.60
75927;DHT22;64605;48.296;16.416;2022-12-18T14:51:31;1.50;68.30
75927;DHT22;64605;48.296;16.416;2022-12-18T14:54:06;1.50;68.50
75927;DHT22;64605;48.296;16.416;2022-12-18T14:56:48;1.40;68.80
75927;DHT22;64605;48.296;16.416;2022-12-18T14:59:23;1.40;68.80
75927;DHT22;64605;48.296;16.416;2022-12-18T15:02:01;1.40;69.10
75927;DHT22;64605;48.296;16.416;2022-12-18T15:04:37;1.50;69.10
75927;DHT22;64605;48.296;16.416;2022-12-18T15:07:21;1.60;69.20
75927;DHT22;64605;48.296;16.416;2022-12-18T15:12:43;1.60;68.90
75927;DHT22;64605;48.296;16.416;2022-12-18T15:18:04;1.70;69.10
75927;DHT22;64605;48.296;16.416;2022-12-18T15:25:40;1.60;69.00
75927;DHT22;64605;48.296;16.416;2022-12-18T15:28:20;1.50;69.10
75927;DHT22;64605;48.296;16.416;2022-12-18T15:33:29;1.50;69.20
75927;DHT22;64605;48.296;16.416;2022-12-18T15:36:08;1.50;69.50
75927;DHT22;64605;48.296;16.416;2022-12-18T15:38:35;1.50;69.10
75927;DHT22;64605;48.296;16.416;2022-12-18T15:41:00;1.40;69.20
75927;DHT22;64605;48.296;16.416;2022-12-18T15:43:29;1.30;69.40
75927;DHT22;64605;48.296;16.416;2022-12-18T15:46:09;1.30;69.80
75927;DHT22;64605;48.296;16.416;2022-12-18T15:48:40;1.40;70.00
75927;DHT22;64605;48.296;16.416;2022-12-18T15:51:13;1.40;70.00
75927;DHT22;64605;48.296;16.416;2022-12-18T15:53:40;1.50;69.80
75927;DHT22;64605;48.296;16.416;2022-12-18T15:56:10;1.40;69.90
75927;DHT22;64605;48.296;16.416;2022-12-18T15:58:55;1.40;70.00
75927;DHT22;64605;48.296;16.416;2022-12-18T16:01:23;1.60;70.10
75927;DHT22;64605;48.296;16.416;2022-12-18T16:03:50;1.60;69.70
75927;DHT22;64605;48.296;16.416;2022-12-18T16:06:16;1.50;69.90
75927;DHT22;64605;48.296;16.416;2022-12-18T16:08:42;1.40;70.20
75927;DHT22;64605;48.296;16.416;2022-12-18T16:11:28;1.50;70.40
75927;DHT22;64605;48.296;16.416;2022-12-18T16:14:22;1.50;70.20
75927;DHT22;64605;48.296;16.416;2022-12-18T16:16:56;1.60;70.30
75927;DHT22;64605;48.296;16.416;2022-12-18T16:19:22;1.60;69.90
75927;DHT22;64605;48.296;16.416;2022-12-18T16:21:50;1.60;70.10
75927;DHT22;64605;48.296;16.416;2022-12-18T16:24:18;1.70;70.10
75927;DHT22;64605;48.296;16.416;2022-12-18T16:26:44;1.60;70.10
75927;DHT22;64605;48.296;16.416;2022-12-18T16:29:10;1.60;70.30
75927;DHT22;64605;48.296;16.416;2022-12-18T16:31:36;1.50;70.50
75927;DHT22;64605;48.296;16.416;2022-12-18T16:34:25;1.40;70.90
75927;DHT22;64605;48.296;16.416;2022-12-18T16:37:07;1.40;71.20
75927;DHT22;64605;48.296;16.416;2022-12-18T16:39:34;1.30;71.20
75927;DHT22;64605;48.296;16.416;2022-12-18T16:42:09;1.40;71.30
75927;DHT22;64605;48.296;16.416;2022-12-18T16:44:37;1.40;71.40
75927;DHT22;64605;48.296;16.416;2022-12-18T16:47:03;1.40;71.50
75927;DHT22;64605;48.296;16.416;2022-12-18T16:49:29;1.50;71.70
75927;DHT22;64605;48.296;16.416;2022-12-18T16:51:55;1.50;72.10
75927;DHT22;64605;48.296;16.416;2022-12-18T16:54:21;1.40;72.10
75927;DHT22;64605;48.296;16.416;2022-12-18T16:56:46;1.30;72.30
75927;DHT22;64605;48.296;16.416;2022-12-18T16:59:14;1.30;72.40
75927;DHT22;64605;48.296;16.416;2022-12-18T17:01:40;1.30;72.20
75927;DHT22;64605;48.296;16.416;2022-12-18T17:04:09;1.30;72.20
75927;DHT22;64605;48.296;16.416;2022-12-18T17:06:39;1.40;72.10
75927;DHT22;64605;48.296;16.416;2022-12-18T17:09:08;1.30;72.10
75927;DHT22;64605;48.296;16.416;2022-12-18T17:11:35;1.40;72.10
75927;DHT22;64605;48.296;16.416;2022-12-18T17:14:16;1.40;73.00
75927;DHT22;64605;48.296;16.416;2022-12-18T17:16:42;1.50;72.00
75927;DHT22;64605;48.296;16.416;2022-12-18T17:19:09;1.40;71.80
75927;DHT22;64605;48.296;16.416;2022-12-18T17:21:34;1.30;72.40
75927;DHT22;64605;48.296;16.416;2022-12-18T17:24:01;1.40;72.30
75927;DHT22;64605;48.296;16.416;2022-12-18T17:26:27;1.40;72.40
75927;DHT22;64605;48.296;16.416;2022-12-18T17:28:55;1.50;72.20
75927;DHT22;64605;48.296;16.416;2022-12-18T17:31:23;1.60;72.10
75927;DHT22;64605;48.296;16.416;2022-12-18T17:33:49;1.50;72.50
75927;DHT22;64605;48.296;16.416;2022-12-18T17:36:16;1.50;71.80
75927;DHT22;64605;48.296;16.416;2022-12-18T17:38:42;1.50;72.00
75927;DHT22;64605;48.296;16.416;2022-12-18T17:41:09;1.50;71.80
75927;DHT22;64605;48.296;16.416;2022-12-18T17:43:36;1.40;71.50
75927;DHT22;64605;48.296;16.416;2022-12-18T17:46:11;1.40;71.80